Time;durP1;ratioP1;P1;durP2;ratioP2;P2;SDS_P1;SDS_P2;PMS_P1;PMS_P2;Temp;Humidity;BMP_temperature;BMP_pressure;BME280_temperature;BME280_humidity;BME280_pressure;Samples;Min_cycle;Max_cycle;Signal;HPM_P1;HPM_P2
2023/02/26 00:01:19;;;;;;;9.65;2.38;;;;;;;-1.35;100.00;101722.53;5130109;27;20435;-47
2023/02/26 00:03:50;;;;;;;8.73;2.78;;;;;;;-1.34;100.00;101726.00;5130530;27;20043;-49
2023/02/26 00:06:23;;;;;;;10.32;2.13;;;;;;;-1.35;100.00;101735.44;5132812;27;20054;-59
2023/02/26 00:08:52;;;;;;;6.18;2.00;;;;;;;-1.40;100.00;101730.31;5130526;27;20036;-59
2023/02/26 00:11:21;;;;;;;8.10;2.58;;;;;;;-1.41;100.00;101738.06;5130258;27;20043;-59
2023/02/26 00:13:50;;;;;;;8.38;2.15;;;;;;;-1.43;100.00;101744.91;5130155;27;20043;-59
2023/02/26 00:16:26;;;;;;;10.55;2.55;;;;;;;-1.41;100.00;101749.22;5130204;28;20092;-59
2023/02/26 00:18:57;;;;;;;7.43;2.15;;;;;;;-1.42;100.00;101754.38;5130738;27;20506;-59
2023/02/26 00:21:26;;;;;;;7.53;2.22;;;;;;;-1.45;100.00;101752.66;5128664;28;20122;-58
2023/02/26 00:23:55;;;;;;;7.15;2.20;;;;;;;-1.42;100.00;101751.81;5130492;27;20476;-59
2023/02/26 00:26:25;;;;;;;8.65;2.00;;;;;;;-1.44;100.00;101749.22;5130641;28;20054;-59
2023/02/26 00:28:55;;;;;;;9.18;2.50;;;;;;;-1.41;100.00;101763.84;5132962;27;20046;-59
2023/02/26 00:31:24;;;;;;;6.45;2.22;;;;;;;-1.43;100.00;101762.97;5130135;27;20107;-59
2023/02/26 00:33:57;;;;;;;5.85;1.92;;;;;;;-1.36;100.00;101775.03;5130357;27;20047;-59
2023/02/26 00:36:35;;;;;;;7.63;2.33;;;;;;;-1.35;100.00;101766.41;5130443;28;20482;-59
2023/02/26 00:39:16;;;;;;;7.88;2.10;;;;;;;-1.39;100.00;101777.59;5133514;28;20047;-58
2023/02/26 00:41:44;;;;;;;7.85;2.10;;;;;;;-1.41;100.00;101775.03;5133353;28;20050;-58
2023/02/26 00:44:13;;;;;;;10.85;2.10;;;;;;;-1.36;100.00;101778.47;5130570;28;20047;-59
2023/02/26 00:46:47;;;;;;;9.27;2.75;;;;;;;-1.38;100.00;101789.66;5129768;27;20047;-59
2023/02/26 00:49:27;;;;;;;7.97;2.28;;;;;;;-1.41;100.00;101785.34;5131985;27;20378;-58
2023/02/26 00:51:58;;;;;;;6.55;2.35;;;;;;;-1.43;100.00;101781.06;5133258;27;20391;-59
2023/02/26 00:54:28;;;;;;;7.70;2.22;;;;;;;-1.43;100.00;101796.53;5132037;28;20088;-59
2023/02/26 00:56:59;;;;;;;5.25;2.90;;;;;;;-1.41;100.00;101787.09;5130426;28;20111;-59
2023/02/26 00:59:27;;;;;;;10.23;2.33;;;;;;;-1.43;100.00;101787.09;5131968;27;20034;-59
2023/02/26 01:01:55;;;;;;;10.57;2.03;;;;;;;-1.43;100.00;101781.94;5133115;28;20454;-59
2023/02/26 01:04:25;;;;;;;13.23;2.58;;;;;;;-1.34;100.00;101790.53;5132522;27;20047;-59
2023/02/26 01:06:57;;;;;;;5.90;1.90;;;;;;;-1.31;100.00;101790.53;5132927;27;20039;-59
2023/02/26 01:09:28;;;;;;;11.93;2.00;;;;;;;-1.32;100.00;101789.66;5132227;27;20047;-59
2023/02/26 01:12:00;;;;;;;6.55;1.90;;;;;;;-1.29;100.00;101794.81;5133962;27;20104;-59
2023/02/26 01:14:30;;;;;;;9.23;2.10;;;;;;;-1.32;100.00;101789.66;5133333;27;20807;-59
2023/02/26 01:17:06;;;;;;;;;;;;;;;-1.30;100.00;101790.50;5134173;27;20043;-59
2023/02/26 01:19:44;;;;;;;9.00;2.53;;;;;;;-1.32;100.00;101793.94;5132098;27;20019;-59
2023/02/26 01:22:18;;;;;;;6.55;2.03;;;;;;;-1.32;100.00;101789.66;5132789;27;20051;-59
2023/02/26 01:24:49;;;;;;;11.65;2.30;;;;;;;-1.30;100.00;101792.25;5135905;27;20046;-59
2023/02/26 01:27:20;;;;;;;6.93;1.70;;;;;;;-1.27;100.00;101792.25;5136776;27;20047;-59
2023/02/26 01:29:49;;;;;;;6.55;1.67;;;;;;;-1.26;100.00;101796.53;5136623;27;20528;-59
2023/02/26 01:32:21;;;;;;;6.25;2.00;;;;;;;-1.20;100.00;101801.69;5136663;27;20039;-59
2023/02/26 01:34:57;;;;;;;7.97;1.58;;;;;;;-1.23;100.00;101805.16;5133047;27;20561;-59
2023/02/26 01:37:33;;;;;;;7.65;1.50;;;;;;;-1.19;100.00;101808.56;5132732;27;20049;-59
2023/02/26 01:40:34;;;;;;;8.05;1.67;;;;;;;-1.22;100.00;101811.16;5132977;27;20051;-59
2023/02/26 01:43:10;;;;;;;6.60;1.60;;;;;;;-1.26;100.00;101810.31;5133386;27;20058;-59
2023/02/26 01:45:54;;;;;;;4.55;1.73;;;;;;;-1.27;100.00;101808.59;5132935;27;20049;-59
2023/02/26 01:48:35;;;;;;;3.95;1.30;;;;;;;-1.28;100.00;101811.16;5131601;27;20051;-59
2023/02/26 01:51:05;;;;;;;5.88;1.50;;;;;;;-1.30;100.00;101813.75;5132760;27;20069;-59
2023/02/26 01:53:33;;;;;;;5.32;1.75;;;;;;;-1.31;100.00;101813.75;5133649;27;20437;-59
2023/02/26 01:56:09;;;;;;;8.05;1.83;;;;;;;-1.30;100.00;101812.91;5133312;27;20058;-58
2023/02/26 01:58:38;;;;;;;4.75;1.58;;;;;;;-1.32;100.00;101818.06;5132743;27;20112;-59
2023/02/26 02:01:07;;;;;;;6.20;1.90;;;;;;;-1.37;100.00;101809.44;5134253;27;20055;-59
2023/02/26 02:03:41;;;;;;;5.80;1.70;;;;;;;-1.43;100.00;101818.06;5132491;27;20047;-59
2023/02/26 02:06:17;;;;;;;7.95;2.13;;;;;;;-1.38;100.00;101821.50;5132976;27;20451;-58
2023/02/26 02:08:46;;;;;;;8.25;1.85;;;;;;;-1.44;100.00;101831.81;5135848;27;20049;-59
2023/02/26 02:11:17;;;;;;;9.20;1.90;;;;;;;-1.46;100.00;101835.25;5135473;27;20035;-59
2023/02/26 02:14:01;;;;;;;5.80;1.80;;;;;;;-1.46;100.00;101837.84;5134477;27;20053;-59
2023/02/26 02:16:39;;;;;;;10.23;2.28;;;;;;;-1.46;100.00;101827.50;5130520;27;20061;-59
2023/02/26 02:19:25;;;;;;;6.85;1.92;;;;;;;-1.51;100.00;101839.53;5132411;27;20086;-58
2023/02/26 02:22:20;;;;;;;10.82;1.85;;;;;;;-1.51;100.00;101842.13;5132462;27;20039;-58
2023/02/26 02:25:05;;;;;;;7.68;1.80;;;;;;;-1.51;100.00;101847.28;5132240;27;20051;-59
2023/02/26 02:27:42;;;;;;;6.47;1.65;;;;;;;-1.56;100.00;101852.44;5132233;27;20043;-59
2023/02/26 02:30:25;;;;;;;5.32;1.80;;;;;;;-1.60;100.00;101848.16;5135612;27;20047;-59
2023/02/26 02:32:59;;;;;;;7.03;2.13;;;;;;;-1.64;100.00;101865.31;5134159;27;20058;-47
2023/02/26 02:35:32;;;;;;;7.15;2.20;;;;;;;-1.66;100.00;101856.75;5130120;27;20043;-50
2023/02/26 02:38:07;;;;;;;5.20;1.60;;;;;;;-1.68;100.00;101867.91;5131596;27;20406;-48
2023/02/26 02:40:41;;;;;;;9.13;1.98;;;;;;;-1.71;100.00;101876.50;5131937;27;20535;-46
2023/02/26 02:43:15;;;;;;;11.25;1.95;;;;;;;-1.72;100.00;101879.94;5131471;27;20043;-48
2023/02/26 02:45:47;;;;;;;8.30;1.77;;;;;;;-1.71;100.00;101881.66;5131265;27;20047;-50
2023/02/26 02:48:24;;;;;;;6.15;2.30;;;;;;;-1.75;100.00;101880.78;5131654;27;20058;-49
2023/02/26 02:50:58;;;;;;;9.57;1.80;;;;;;;-1.79;100.00;101885.94;5130171;27;20058;-46
2023/02/26 02:53:33;;;;;;;7.60;1.58;;;;;;;-1.80;100.00;101881.63;5131058;27;20065;-48
2023/02/26 02:56:05;;;;;;;6.88;1.95;;;;;;;-1.82;100.00;101891.09;5131422;27;20375;-48
2023/02/26 02:58:40;;;;;;;9.05;1.65;;;;;;;-1.88;100.00;101897.94;5131726;27;20047;-48
2023/02/26 03:01:10;;;;;;;7.38;1.90;;;;;;;-1.85;100.00;101901.38;5131239;27;20641;-51
2023/02/26 03:03:46;;;;;;;6.93;1.58;;;;;;;-1.91;100.00;101897.06;5131153;27;20045;-50
2023/02/26 03:06:16;;;;;;;6.30;1.70;;;;;;;-2.00;100.00;101905.66;5128275;27;20066;-49
2023/02/26 03:08:48;;;;;;;5.10;1.48;;;;;;;-1.98;100.00;101898.75;5131382;27;20047;-50
2023/02/26 03:11:16;;;;;;;7.03;1.60;;;;;;;-2.03;100.00;101897.91;5131177;27;20050;-49
2023/02/26 03:13:46;;;;;;;7.93;1.58;;;;;;;-2.07;100.00;101909.06;5131009;27;20100;-50
2023/02/26 03:16:27;;;;;;;6.80;1.95;;;;;;;-2.11;100.00;101905.59;5130337;27;20042;-51
2023/02/26 03:19:05;;;;;;;8.07;1.52;;;;;;;-2.10;100.00;101915.06;5131682;27;20047;-50
2023/02/26 03:21:44;;;;;;;4.57;1.92;;;;;;;-2.10;100.00;101912.47;5129429;27;20055;-52
2023/02/26 03:24:18;;;;;;;5.90;1.45;;;;;;;-2.11;100.00;101912.47;5134381;27;20055;-52
2023/02/26 03:26:51;;;;;;;8.23;1.88;;;;;;;-2.12;100.00;101918.47;5134063;27;20389;-49
2023/02/26 03:29:27;;;;;;;5.38;1.55;;;;;;;-2.15;100.00;101924.47;5132666;27;20046;-47
2023/02/26 03:32:00;;;;;;;7.50;1.70;;;;;;;-2.16;100.00;101933.06;5134370;27;20513;-47
2023/02/26 03:34:32;;;;;;;;;;;;;;;-2.15;100.00;101926.22;5130352;27;20062;-47
2023/02/26 03:37:05;;;;;;;4.47;1.60;;;;;;;-2.18;100.00;101936.47;5130662;27;19944;-47
2023/02/26 03:39:40;;;;;;;6.25;2.30;;;;;;;-2.23;100.00;101931.31;5132053;27;20039;-47
2023/02/26 03:42:12;;;;;;;4.15;1.33;;;;;;;-2.23;100.00;101932.16;5132092;27;20067;-47
2023/02/26 03:44:44;;;;;;;5.63;1.17;;;;;;;-2.27;100.00;101935.56;5130010;27;20046;-49
2023/02/26 03:47:15;;;;;;;2.95;1.20;;;;;;;-2.25;100.00;101927.84;5130343;27;20047;-46
2023/02/26 03:49:50;;;;;;;5.70;1.30;;;;;;;-2.25;100.00;101938.16;5129700;27;20051;-46
2023/02/26 03:52:22;;;;;;;9.23;1.42;;;;;;;-2.27;100.00;101938.16;5130344;27;20047;-48
2023/02/26 03:54:56;;;;;;;4.63;1.30;;;;;;;-2.31;100.00;101948.44;5132804;27;20099;-46
2023/02/26 03:57:25;;;;;;;7.32;1.55;;;;;;;-2.27;100.00;101951.03;5132233;27;20051;-46
2023/02/26 03:59:53;;;;;;;6.43;1.45;;;;;;;-2.27;100.00;101947.63;5132895;27;20047;-47
2023/02/26 04:02:28;;;;;;;10.30;1.77;;;;;;;-2.29;100.00;101955.34;5130284;27;20050;-48
2023/02/26 04:05:03;;;;;;;7.40;1.88;;;;;;;-2.27;100.00;101961.34;5129867;27;20497;-47
2023/02/26 04:07:31;;;;;;;5.70;1.60;;;;;;;-2.34;100.00;101966.47;5129795;27;20502;-46
2023/02/26 04:09:59;;;;;;;8.55;1.30;;;;;;;-2.32;100.00;101963.03;5130181;27;20074;-47
2023/02/26 04:12:29;;;;;;;7.35;1.40;;;;;;;-2.29;100.00;101967.34;5131274;27;20373;-48
2023/02/26 04:14:57;;;;;;;6.03;2.28;;;;;;;-2.34;100.00;101969.91;5132055;27;20047;-46
2023/02/26 04:17:26;;;;;;;10.25;1.85;;;;;;;-2.31;100.00;101981.94;5130367;28;20062;-46
2023/02/26 04:19:55;;;;;;;7.28;1.40;;;;;;;-2.40;100.00;101978.47;5128999;28;20047;-47
2023/02/26 04:22:25;;;;;;;4.72;1.00;;;;;;;-2.45;100.00;101982.72;5129494;27;20092;-47
2023/02/26 04:24:56;;;;;;;3.92;1.20;;;;;;;-2.48;100.00;101987.84;5130313;28;20126;-47
2023/02/26 04:27:24;;;;;;;4.97;1.10;;;;;;;-2.48;100.00;101986.97;5130146;28;20051;-47
2023/02/26 04:29:52;;;;;;;8.40;1.25;;;;;;;-2.52;100.00;101986.09;5132287;28;20043;-47
2023/02/26 04:32:20;;;;;;;6.90;1.27;;;;;;;-2.54;100.00;101995.53;5131179;28;20047;-47
2023/02/26 04:34:51;;;;;;;7.43;1.20;;;;;;;-2.48;100.00;101999.84;5129256;27;20050;-47
2023/02/26 04:37:19;;;;;;;7.35;2.10;;;;;;;-2.54;100.00;102005.81;5130213;27;20045;-48
2023/02/26 04:39:51;;;;;;;5.55;1.10;;;;;;;-2.51;100.00;102005.00;5134791;27;20043;-58
2023/02/26 04:42:19;;;;;;;5.10;1.20;;;;;;;-2.53;100.00;102014.44;5136096;27;20074;-58
2023/02/26 04:44:47;;;;;;;2.60;1.13;;;;;;;-2.58;100.00;102019.53;5137332;27;20081;-58
2023/02/26 04:47:15;;;;;;;4.22;1.30;;;;;;;-2.61;100.00;102024.66;5134034;27;20043;-58
2023/02/26 04:49:43;;;;;;;5.43;1.35;;;;;;;-2.60;100.00;102019.53;5132745;27;20108;-58
2023/02/26 04:52:14;;;;;;;7.22;1.38;;;;;;;-2.55;100.00;102027.28;5134207;27;20416;-58
2023/02/26 04:54:42;;;;;;;5.00;0.95;;;;;;;-2.60;100.00;102029.84;5135321;27;20070;-58
2023/02/26 04:57:15;;;;;;;3.63;0.98;;;;;;;-2.61;100.00;102033.25;5133699;27;20048;-58
2023/02/26 04:59:43;;;;;;;5.65;1.77;;;;;;;-2.64;100.00;102037.53;5133465;27;20464;-58
2023/02/26 05:02:13;;;;;;;7.90;1.52;;;;;;;-2.67;100.00;102035.78;5134049;27;20127;-58
2023/02/26 05:04:42;;;;;;;6.07;1.33;;;;;;;-2.70;100.00;102040.88;5132119;27;20150;-58
2023/02/26 05:07:10;;;;;;;4.38;1.75;;;;;;;-2.64;100.00;102038.38;5133292;27;20039;-58
2023/02/26 05:09:38;;;;;;;4.70;1.65;;;;;;;-2.64;100.00;102038.38;5135371;27;20043;-58
2023/02/26 05:12:06;;;;;;;4.50;1.15;;;;;;;-2.62;100.00;102048.69;5134281;27;20118;-58
2023/02/26 05:14:36;;;;;;;3.53;0.90;;;;;;;-2.65;100.00;102046.94;5133287;27;20139;-58
2023/02/26 05:17:06;;;;;;;4.67;0.90;;;;;;;-2.67;100.00;102045.22;5133349;27;20553;-58
2023/02/26 05:19:34;;;;;;;3.65;1.10;;;;;;;-2.65;100.00;102044.38;5132229;27;20047;-58
2023/02/26 05:22:05;;;;;;;7.43;1.23;;;;;;;-2.65;100.00;102048.69;5134761;27;20542;-58
2023/02/26 05:24:33;;;;;;;4.72;1.20;;;;;;;-2.68;100.00;102052.09;5136651;27;20054;-58
2023/02/26 05:27:02;;;;;;;6.65;1.00;;;;;;;-2.64;100.00;102059.00;5136539;27;20574;-58
2023/02/26 05:29:30;;;;;;;3.25;0.90;;;;;;;-2.64;100.00;102064.13;5132969;27;20112;-58
2023/02/26 05:32:00;;;;;;;4.22;1.00;;;;;;;-2.65;100.00;102061.56;5134784;27;20051;-58
2023/02/26 05:34:28;;;;;;;5.40;0.95;;;;;;;-2.66;100.00;102070.13;5133398;27;20079;-58
2023/02/26 05:36:59;;;;;;;5.82;1.08;;;;;;;-2.58;100.00;102066.78;5133016;27;20047;-58
2023/02/26 05:39:27;;;;;;;2.95;1.00;;;;;;;-2.59;100.00;102074.47;5132121;27;20043;-59
2023/02/26 05:41:55;;;;;;;4.63;0.90;;;;;;;-2.60;100.00;102077.94;5133574;27;20428;-58
2023/02/26 05:44:24;;;;;;;3.47;0.93;;;;;;;-2.57;100.00;102072.78;5132887;27;20107;-58
2023/02/26 05:46:52;;;;;;;3.88;1.00;;;;;;;-2.60;100.00;102073.63;5133157;27;20441;-59
2023/02/26 05:49:21;;;;;;;7.05;1.15;;;;;;;-2.58;100.00;102089.97;5132014;27;20488;-58
2023/02/26 05:51:49;;;;;;;6.00;1.35;;;;;;;-2.59;100.00;102088.25;5131656;27;20047;-58
2023/02/26 05:54:18;;;;;;;3.38;1.05;;;;;;;-2.60;100.00;102081.34;5132526;27;20122;-58
2023/02/26 05:56:46;;;;;;;7.30;1.17;;;;;;;-2.60;100.00;102089.09;5133996;27;20055;-59
2023/02/26 05:59:14;;;;;;;5.72;1.67;;;;;;;-2.63;100.00;102094.22;5134093;27;20051;-58
2023/02/26 06:01:42;;;;;;;4.05;1.13;;;;;;;-2.65;100.00;102095.91;5132108;27;20031;-58
2023/02/26 06:04:10;;;;;;;4.90;0.95;;;;;;;-2.59;100.00;102108.84;5132468;27;20047;-58
2023/02/26 06:06:40;;;;;;;3.65;0.90;;;;;;;-2.58;100.00;102108.00;5130999;27;20114;-58
2023/02/26 06:09:08;;;;;;;4.18;1.33;;;;;;;-2.62;100.00;102108.81;5135416;27;20043;-58
2023/02/26 06:11:38;;;;;;;4.18;1.20;;;;;;;-2.49;100.00;102114.94;5132837;27;20051;-58
2023/02/26 06:14:06;;;;;;;4.32;1.00;;;;;;;-2.53;100.00;102113.19;5132543;27;20130;-58
2023/02/26 06:16:34;;;;;;;5.95;1.20;;;;;;;-2.36;100.00;102120.22;5132010;27;20067;-58
2023/02/26 06:19:03;;;;;;;5.55;1.20;;;;;;;-2.42;100.00;102121.03;5132562;27;20411;-58
2023/02/26 06:21:31;;;;;;;6.32;1.35;;;;;;;-2.48;100.00;102123.53;5129840;27;20047;-58
2023/02/26 06:24:00;;;;;;;2.88;0.90;;;;;;;-2.50;100.00;102127.81;5133014;27;20043;-58
2023/02/26 06:26:28;;;;;;;3.75;1.30;;;;;;;-2.48;100.00;102126.09;5134056;27;21044;-58
2023/02/26 06:28:56;;;;;;;6.53;1.08;;;;;;;-2.47;100.00;102133.00;5132631;27;20498;-58
2023/02/26 06:31:24;;;;;;;7.40;1.15;;;;;;;-2.52;100.00;102132.06;5131952;27;20047;-58
2023/02/26 06:33:53;;;;;;;2.50;0.82;;;;;;;-2.47;100.00;102138.16;5134731;27;20050;-59
2023/02/26 06:36:21;;;;;;;5.65;1.30;;;;;;;-2.52;100.00;102140.69;5129897;27;20112;-58
2023/02/26 06:38:49;;;;;;;2.78;1.17;;;;;;;-2.55;100.00;102148.38;5131756;27;20150;-58
2023/02/26 06:41:18;;;;;;;5.40;1.45;;;;;;;-2.51;100.00;102144.13;5132084;27;20051;-58
2023/02/26 06:43:49;;;;;;;;;;;;;;;-2.50;100.00;102158.75;5132360;27;20959;-58
2023/02/26 06:46:17;;;;;;;5.57;1.08;;;;;;;-2.51;100.00;102159.56;5131532;27;19959;-58
2023/02/26 06:48:45;;;;;;;4.95;1.15;;;;;;;-2.43;100.00;102157.94;5131978;27;20039;-58
2023/02/26 06:51:14;;;;;;;4.63;1.20;;;;;;;-2.44;100.00;102156.19;5128163;27;20055;-58
2023/02/26 06:53:42;;;;;;;3.50;1.10;;;;;;;-2.44;100.00;102163.94;5131190;27;20553;-58
2023/02/26 06:56:10;;;;;;;3.10;1.27;;;;;;;-2.43;100.00;102168.25;5131484;27;20043;-58
2023/02/26 06:58:39;;;;;;;6.25;1.10;;;;;;;-2.42;100.00;102170.84;5134266;27;20043;-58
2023/02/26 07:01:08;;;;;;;3.00;1.02;;;;;;;-2.41;100.00;102182.88;5133956;27;20057;-58
2023/02/26 07:03:36;;;;;;;2.17;0.90;;;;;;;-2.43;100.00;102191.44;5130770;27;20039;-58
2023/02/26 07:06:07;;;;;;;3.42;0.95;;;;;;;-2.30;100.00;102192.44;5130070;27;20062;-58
2023/02/26 07:08:53;;;;;;;5.88;0.95;;;;;;;-2.28;100.00;102194.16;5134367;27;20047;-58
2023/02/26 07:11:22;;;;;;;6.15;1.17;;;;;;;-2.30;100.00;102206.19;5134445;27;20047;-58
2023/02/26 07:13:51;;;;;;;3.63;1.20;;;;;;;-2.24;100.00;102206.22;5134465;27;20067;-58
2023/02/26 07:16:19;;;;;;;3.05;0.90;;;;;;;-2.18;100.00;102207.16;5134453;27;20082;-59
2023/02/26 07:18:47;;;;;;;5.57;0.98;;;;;;;-2.10;100.00;102215.81;5134248;27;20369;-58
2023/02/26 07:21:15;;;;;;;3.40;1.10;;;;;;;-2.04;100.00;102224.47;5134419;27;20485;-58
2023/02/26 07:23:43;;;;;;;4.60;1.02;;;;;;;-2.06;100.00;102225.31;5134551;27;20054;-58
2023/02/26 07:26:11;;;;;;;2.90;0.80;;;;;;;-1.93;100.00;102234.88;5134429;27;20054;-59
2023/02/26 07:28:40;;;;;;;5.70;1.05;;;;;;;-1.91;100.00;102230.63;5134204;27;20043;-58
2023/02/26 07:31:09;;;;;;;4.68;1.10;;;;;;;-1.84;100.00;102240.97;5132667;27;20574;-58
2023/02/26 07:33:38;;;;;;;6.40;1.05;;;;;;;-1.74;100.00;102242.81;5130631;27;20112;-59
2023/02/26 07:36:07;;;;;;;2.45;0.90;;;;;;;-1.71;100.00;102245.41;5129240;27;20043;-59
2023/02/26 07:38:35;;;;;;;6.13;1.33;;;;;;;-1.56;100.00;102240.34;5130484;27;20035;-58
2023/02/26 07:41:03;;;;;;;6.95;1.00;;;;;;;-1.47;100.00;102251.59;5131133;27;20476;-59
2023/02/26 07:43:31;;;;;;;3.85;0.93;;;;;;;-1.20;100.00;102254.38;5130544;27;20355;-59
2023/02/26 07:45:59;;;;;;;5.55;1.13;;;;;;;-1.14;100.00;102256.13;5130624;27;20047;-59
2023/02/26 07:48:29;;;;;;;4.57;1.02;;;;;;;-1.12;100.00;102258.72;5130570;27;20043;-59
2023/02/26 07:50:57;;;;;;;3.05;0.88;;;;;;;-1.07;100.00;102264.78;5129007;27;20039;-59
2023/02/26 07:53:25;;;;;;;6.32;1.25;;;;;;;-0.80;100.00;102252.88;5129950;27;20042;-59
2023/02/26 07:55:56;;;;;;;7.60;1.17;;;;;;;-0.47;100.00;102267.66;5130982;27;20063;-59
2023/02/26 07:58:24;;;;;;;5.30;0.93;;;;;;;-0.52;100.00;102259.91;5132277;27;20130;-59
2023/02/26 08:00:53;;;;;;;4.88;1.05;;;;;;;-0.11;100.00;102267.75;5133976;27;20103;-59
2023/02/26 08:03:21;;;;;;;5.38;1.23;;;;;;;0.12;100.00;102260.03;5133079;27;20490;-59
2023/02/26 08:05:51;;;;;;;5.63;1.10;;;;;;;0.29;100.00;102270.41;5128551;27;20047;-59
2023/02/26 08:08:19;;;;;;;4.03;0.90;;;;;;;0.36;100.00;102277.31;5130082;27;20050;-59
2023/02/26 08:10:47;;;;;;;5.18;1.00;;;;;;;0.58;100.00;102277.31;5130553;27;20466;-59
2023/02/26 08:13:15;;;;;;;5.45;0.70;;;;;;;0.75;100.00;102285.06;5132389;27;20497;-59
2023/02/26 08:15:43;;;;;;;6.25;0.90;;;;;;;0.66;100.00;102283.34;5132801;27;20043;-58
2023/02/26 08:18:14;;;;;;;4.78;1.58;;;;;;;0.94;100.00;102279.00;5130956;28;20085;-58
2023/02/26 08:20:43;;;;;;;2.28;1.10;;;;;;;1.09;100.00;102279.81;5129491;28;20050;-58
2023/02/26 08:23:12;;;;;;;5.70;0.88;;;;;;;1.31;100.00;102285.78;5130417;28;20099;-58
2023/02/26 08:25:41;;;;;;;6.38;0.88;;;;;;;1.22;100.00;102288.44;5130927;28;20039;-58
2023/02/26 08:28:11;;;;;;;4.13;1.00;;;;;;;1.15;100.00;102290.19;5133122;28;20055;-58
2023/02/26 08:30:40;;;;;;;6.47;1.08;;;;;;;1.20;100.00;102292.75;5133762;27;20047;-59
2023/02/26 08:33:08;;;;;;;4.88;1.20;;;;;;;1.59;100.00;102302.09;5133878;28;20055;-59
2023/02/26 08:35:36;;;;;;;5.05;1.58;;;;;;;1.56;100.00;102290.91;5131485;27;20502;-59
2023/02/26 08:38:04;;;;;;;6.90;1.10;;;;;;;1.45;100.00;102309.94;5130742;27;20043;-60
2023/02/26 08:40:33;;;;;;;6.60;1.20;;;;;;;1.52;100.00;102306.44;5132717;27;20051;-59
2023/02/26 08:43:02;;;;;;;8.98;1.20;;;;;;;1.42;100.00;102315.16;5131170;27;20516;-58
2023/02/26 08:45:30;;;;;;;4.43;0.77;;;;;;;1.62;100.00;102327.16;5130309;28;20043;-59
2023/02/26 08:47:59;;;;;;;4.97;1.00;;;;;;;1.58;100.00;102325.47;5131289;28;20386;-59
2023/02/26 08:50:28;;;;;;;5.32;1.20;;;;;;;1.63;100.00;102332.34;5129410;27;20059;-59
2023/02/26 08:52:56;;;;;;;4.22;1.00;;;;;;;2.11;100.00;102334.69;5130285;27;20536;-60
2023/02/26 08:55:24;;;;;;;4.28;0.98;;;;;;;1.92;99.04;102330.50;5130716;27;20043;-60
2023/02/26 08:57:53;;;;;;;3.55;0.95;;;;;;;2.06;99.15;102339.09;5130656;27;20059;-59
2023/02/26 09:00:22;;;;;;;6.22;1.40;;;;;;;2.41;99.21;102332.78;5128851;28;20061;-59
2023/02/26 09:02:50;;;;;;;2.85;0.80;;;;;;;2.37;98.75;102341.47;5130161;27;20039;-59
2023/02/26 09:05:19;;;;;;;5.07;1.05;;;;;;;2.49;98.08;102353.50;5128634;27;20047;-60
2023/02/26 09:07:47;;;;;;;5.13;0.90;;;;;;;2.37;95.48;102349.25;5129584;28;20532;-60
2023/02/26 09:10:16;;;;;;;3.53;1.05;;;;;;;2.42;93.87;102365.66;5129153;28;20031;-59
2023/02/26 09:12:47;;;;;;;4.03;0.70;;;;;;;2.42;92.79;102363.06;5130316;27;20053;-59
2023/02/26 09:15:16;;;;;;;3.00;1.10;;;;;;;2.78;93.63;102370.59;5129863;27;20058;-60
2023/02/26 09:17:45;;;;;;;4.07;0.90;;;;;;;2.77;89.72;102372.34;5129351;27;20043;-59
2023/02/26 09:20:14;;;;;;;6.07;1.30;;;;;;;2.84;88.64;102376.63;5128117;28;20410;-60
2023/02/26 09:22:43;;;;;;;2.70;0.90;;;;;;;2.91;88.27;102380.03;5129531;27;20566;-60
2023/02/26 09:25:14;;;;;;;4.50;2.35;;;;;;;2.77;88.17;102387.94;5130250;27;20050;-60
2023/02/26 09:27:42;;;;;;;2.38;0.55;;;;;;;2.90;86.50;102380.03;5135019;27;20047;-60
2023/02/26 09:30:12;;;;;;;4.03;0.80;;;;;;;3.01;90.19;102381.69;5134661;27;20449;-60
2023/02/26 09:32:41;;;;;;;5.38;0.98;;;;;;;3.17;88.40;102374.59;5132961;27;20043;-60
2023/02/26 09:35:10;;;;;;;3.80;1.05;;;;;;;3.32;87.36;102383.13;5132989;27;20054;-60
2023/02/26 09:37:40;;;;;;;2.88;0.80;;;;;;;3.23;84.30;102373.66;5137061;27;20039;-60
2023/02/26 09:40:19;;;;;;;3.92;1.05;;;;;;;3.45;84.36;102389.94;5134991;27;20057;-61
2023/02/26 09:43:03;;;;;;;4.47;1.05;;;;;;;3.32;80.22;102388.31;5131998;27;20055;-60
2023/02/26 09:45:35;;;;;;;5.30;1.20;;;;;;;3.64;83.22;102394.91;5132599;27;20043;-60
2023/02/26 09:48:06;;;;;;;2.13;0.90;;;;;;;3.79;80.82;102392.16;5133639;27;20554;-60
2023/02/26 09:50:41;;;;;;;5.15;1.00;;;;;;;3.77;80.00;102396.50;5131803;27;20043;-60
2023/02/26 09:53:16;;;;;;;4.43;0.93;;;;;;;4.06;79.31;102403.06;5132418;27;20121;-61
2023/02/26 09:55:46;;;;;;;5.43;1.20;;;;;;;4.22;80.18;102399.38;5132849;27;20101;-60
2023/02/26 09:58:21;;;;;;;6.25;1.40;;;;;;;4.35;79.07;102400.09;5132070;27;20514;-61
2023/02/26 10:00:58;;;;;;;3.10;0.93;;;;;;;4.16;74.48;102404.69;5134614;27;20684;-61
2023/02/26 10:03:36;;;;;;;3.03;0.85;;;;;;;4.11;73.94;102409.09;5132750;27;20140;-61
2023/02/26 10:06:18;;;;;;;8.07;1.20;;;;;;;4.33;71.47;102412.25;5131563;27;20055;-61
2023/02/26 10:08:58;;;;;;;5.05;1.17;;;;;;;4.47;71.58;102412.09;5132298;27;20047;-61
2023/02/26 10:11:36;;;;;;;5.65;1.10;;;;;;;4.78;71.55;102409.00;5134273;27;20047;-61
2023/02/26 10:14:12;;;;;;;3.05;0.90;;;;;;;4.82;68.73;102415.88;5136121;27;20043;-61
2023/02/26 10:16:45;;;;;;;3.47;1.17;;;;;;;4.91;66.52;102417.50;5136058;27;20035;-61
2023/02/26 10:19:22;;;;;;;3.50;0.80;;;;;;;5.08;67.16;102438.06;5135743;27;20065;-61
2023/02/26 10:21:54;;;;;;;4.60;1.00;;;;;;;5.08;63.03;102425.03;5135941;27;20104;-61
2023/02/26 10:24:26;;;;;;;4.28;0.88;;;;;;;5.18;64.39;102429.22;5135897;27;21161;-61
2023/02/26 10:27:04;;;;;;;3.80;0.88;;;;;;;5.21;63.79;102428.31;5135816;27;20058;-61
2023/02/26 10:29:37;;;;;;;2.35;0.68;;;;;;;5.24;63.30;102431.69;5134331;27;20525;-61
2023/02/26 10:32:21;;;;;;;4.80;0.82;;;;;;;5.34;60.40;102431.53;5130540;27;20062;-59
2023/02/26 10:34:56;;;;;;;2.30;0.70;;;;;;;5.53;60.58;102432.06;5131302;27;20047;-60
2023/02/26 10:37:44;;;;;;;5.03;0.90;;;;;;;5.91;61.73;102440.91;5130390;27;20043;-59
2023/02/26 10:40:19;;;;;;;2.92;0.70;;;;;;;5.96;60.15;102440.81;5131740;27;20039;-59
2023/02/26 10:42:50;;;;;;;3.30;0.68;;;;;;;6.15;58.47;102434.38;5131935;27;20058;-59
2023/02/26 10:45:33;;;;;;;3.92;0.75;;;;;;;6.19;59.50;102437.75;5131606;27;20043;-60
2023/02/26 10:48:14;;;;;;;2.08;0.90;;;;;;;6.47;58.22;102430.19;5134916;27;20050;-59
2023/02/26 10:50:48;;;;;;;2.95;0.90;;;;;;;6.74;60.78;102451.38;5130737;27;20046;-60
2023/02/26 10:53:16;;;;;;;1.67;0.70;;;;;;;7.00;61.32;102442.03;5133586;27;20050;-60
2023/02/26 10:55:48;;;;;;;3.50;0.90;;;;;;;7.18;57.91;102445.94;5133063;27;20043;-60
2023/02/26 10:58:18;;;;;;;4.90;0.80;;;;;;;7.08;56.45;102440.09;5129840;27;20058;-59
2023/02/26 11:00:48;;;;;;;4.22;0.80;;;;;;;6.78;57.74;102450.41;5168432;27;20491;-60
2023/02/26 11:03:20;;;;;;;1.42;0.60;;;;;;;7.21;55.39;102438.88;5134565;27;20043;-60
2023/02/26 11:05:50;;;;;;;3.95;0.70;;;;;;;7.28;55.26;102443.06;5134605;27;20047;-60
2023/02/26 11:08:25;;;;;;;2.95;0.70;;;;;;;7.61;54.79;102434.34;5134764;27;20047;-60
2023/02/26 11:10:56;;;;;;;2.67;0.85;;;;;;;7.27;54.75;102443.09;5134862;27;20039;-60
2023/02/26 11:13:27;;;;;;;1.95;0.80;;;;;;;7.41;53.48;102440.97;5134100;27;20051;-60
2023/02/26 11:16:01;;;;;;;2.88;0.95;;;;;;;7.58;52.82;102448.38;5130975;27;20086;-60
2023/02/26 11:18:32;;;;;;;2.63;0.85;;;;;;;7.21;51.90;102436.28;5131198;27;20061;-60
2023/02/26 11:21:06;;;;;;;2.40;0.80;;;;;;;7.36;52.92;102452.47;5130297;27;20493;-60
2023/02/26 11:23:35;;;;;;;3.03;0.82;;;;;;;7.09;52.16;102449.66;5130686;27;20043;-60
2023/02/26 11:26:06;;;;;;;3.58;0.85;;;;;;;7.23;54.44;102441.47;5131453;27;20088;-60
2023/02/26 11:28:37;;;;;;;2.80;0.60;;;;;;;7.40;52.95;102447.13;5131208;27;20425;-60
2023/02/26 11:31:07;;;;;;;2.13;0.70;;;;;;;7.43;51.03;102438.31;5129669;27;20416;-60
2023/02/26 11:33:38;;;;;;;2.30;0.80;;;;;;;7.33;53.00;102439.47;5131138;27;20840;-60
2023/02/26 11:36:12;;;;;;;1.50;0.70;;;;;;;7.65;52.33;102427.25;5128401;27;20137;-60
2023/02/26 11:38:44;;;;;;;4.30;0.90;;;;;;;7.60;51.37;102443.94;5130511;27;20112;-60
2023/02/26 11:41:13;;;;;;;2.33;0.75;;;;;;;7.43;52.04;102436.56;5131227;27;20047;-60